createdAt,value
2023-03-18T00:00:52.183Z,7.93
2023-03-18T00:03:19.261Z,8.23
2023-03-18T00:05:46.537Z,8.48
2023-03-18T00:08:13.708Z,7.55
2023-03-18T00:10:40.643Z,7.90
2023-03-18T00:13:07.557Z,7.28
2023-03-18T00:15:34.659Z,8.73
2023-03-18T00:18:01.647Z,8.70
2023-03-18T00:20:39.024Z,7.85
2023-03-18T00:23:08.582Z,8.52
2023-03-18T00:25:36.891Z,8.15
2023-03-18T00:28:07.596Z,8.65
2023-03-18T00:30:37.780Z,8.05
2023-03-18T00:33:05.403Z,8.45
2023-03-18T00:35:33.696Z,9.02
2023-03-18T00:38:00.895Z,8.30
2023-03-18T00:40:31.296Z,9.30
2023-03-18T00:43:08.077Z,8.88
2023-03-18T00:45:38.809Z,9.20
2023-03-18T00:48:07.602Z,8.77
2023-03-18T00:50:39.346Z,9.07
2023-03-18T00:53:06.385Z,9.40
2023-03-18T00:55:33.513Z,9.52
2023-03-18T00:58:00.561Z,8.98
2023-03-18T01:00:27.729Z,9.15
2023-03-18T01:02:56.228Z,9.10
2023-03-18T01:05:24.624Z,10.07
2023-03-18T01:07:51.900Z,9.80
2023-03-18T01:10:18.786Z,8.90
2023-03-18T01:12:49.074Z,9.48
2023-03-18T01:15:18.721Z,9.85
2023-03-18T01:17:46.738Z,9.35
2023-03-18T01:20:17.219Z,8.52
2023-03-18T01:22:45.033Z,8.18
2023-03-18T01:25:15.846Z,9.15
2023-03-18T01:27:43.570Z,8.68
2023-03-18T01:30:11.589Z,8.32
2023-03-18T01:32:38.459Z,8.52
2023-03-18T01:35:06.113Z,8.35
2023-03-18T01:37:33.498Z,8.20
2023-03-18T01:40:00.918Z,8.88
2023-03-18T01:42:28.652Z,8.70
2023-03-18T01:45:18.201Z,8.75
2023-03-18T01:47:46.666Z,9.32
2023-03-18T01:50:15.824Z,8.82
2023-03-18T01:52:45.615Z,8.88
2023-03-18T01:55:25.529Z,8.55
2023-03-18T01:57:52.965Z,9.18
2023-03-18T02:00:20.182Z,9.43
2023-03-18T02:02:48.703Z,9.20
2023-03-18T02:07:51.908Z,9.05
2023-03-18T02:10:26.065Z,9.45
2023-03-18T02:13:00.570Z,9.55
2023-03-18T02:15:29.780Z,9.60
2023-03-18T02:18:06.026Z,8.77
2023-03-18T02:20:57.701Z,8.88
2023-03-18T02:24:01.363Z,8.40
2023-03-18T02:26:57.755Z,8.52
2023-03-18T02:29:27.915Z,8.75
2023-03-18T02:31:56.256Z,9.05
2023-03-18T02:34:25.634Z,7.85
2023-03-18T02:36:53.499Z,8.45
2023-03-18T02:39:22.747Z,8.70
2023-03-18T02:41:53.347Z,8.73
2023-03-18T02:44:21.339Z,8.02
2023-03-18T02:46:57.781Z,8.02
2023-03-18T02:49:27.693Z,8.38
2023-03-18T02:51:55.300Z,8.43
2023-03-18T02:54:25.943Z,8.93
2023-03-18T02:56:53.581Z,9.20
2023-03-18T02:59:21.140Z,9.40
2023-03-18T03:01:50.437Z,9.38
2023-03-18T03:04:20.345Z,9.73
2023-03-18T03:06:47.853Z,9.45
2023-03-18T03:09:16.407Z,9.77
2023-03-18T03:11:46.628Z,9.70
2023-03-18T03:14:15.037Z,9.85
2023-03-18T03:16:42.398Z,10.57
2023-03-18T03:19:09.914Z,10.55
2023-03-18T03:21:37.374Z,10.15
2023-03-18T03:24:05.598Z,10.10
2023-03-18T03:26:34.469Z,9.98
2023-03-18T03:29:01.989Z,10.15
2023-03-18T03:31:28.985Z,10.73
2023-03-18T03:33:56.542Z,10.65
2023-03-18T03:36:23.804Z,10.10
2023-03-18T03:38:50.738Z,9.77
2023-03-18T03:41:18.023Z,10.48
2023-03-18T03:43:45.598Z,10.00
2023-03-18T03:46:12.912Z,10.18
2023-03-18T03:48:40.152Z,10.38
2023-03-18T03:51:07.553Z,10.73
2023-03-18T03:53:36.300Z,11.65
2023-03-18T03:56:05.019Z,11.05
2023-03-18T03:58:32.042Z,11.45
2023-03-18T04:00:59.968Z,11.95
2023-03-18T04:03:28.399Z,11.95
2023-03-18T04:05:55.335Z,13.23
2023-03-18T04:08:22.532Z,13.05
2023-03-18T04:10:49.650Z,14.00
2023-03-18T04:13:16.856Z,14.55
2023-03-18T04:15:43.907Z,15.60
2023-03-18T04:18:11.858Z,16.48
2023-03-18T04:20:39.270Z,18.63
2023-03-18T04:23:07.494Z,18.30
2023-03-18T04:25:35.374Z,19.27
2023-03-18T04:28:02.848Z,18.85
2023-03-18T04:30:30.870Z,19.50
2023-03-18T04:32:59.656Z,20.50
2023-03-18T04:35:27.025Z,20.00
2023-03-18T04:37:54.873Z,20.45
2023-03-18T04:40:22.716Z,19.88
2023-03-18T04:42:49.834Z,21.35
2023-03-18T04:45:17.274Z,21.77
2023-03-18T04:47:45.415Z,21.35
2023-03-18T04:50:19.342Z,22.55
2023-03-18T04:52:46.592Z,21.70
2023-03-18T04:55:16.361Z,22.77
2023-03-18T04:57:45.271Z,22.58
2023-03-18T05:00:17.311Z,22.83
2023-03-18T05:02:44.364Z,22.40
2023-03-18T05:05:11.198Z,22.27
2023-03-18T05:07:38.295Z,23.58
2023-03-18T05:10:09.453Z,25.30
2023-03-18T05:12:37.211Z,24.15
2023-03-18T05:15:06.882Z,25.33
2023-03-18T05:17:36.686Z,24.50
2023-03-18T05:20:04.521Z,25.23
2023-03-18T05:22:31.534Z,25.33
2023-03-18T05:24:58.553Z,26.50
2023-03-18T05:27:27.588Z,26.70
2023-03-18T05:29:54.586Z,25.50
2023-03-18T05:32:21.687Z,26.75
2023-03-18T05:34:48.629Z,27.55
2023-03-18T05:37:15.989Z,27.17
2023-03-18T05:39:44.949Z,27.63
2023-03-18T05:42:12.665Z,27.92
2023-03-18T05:44:42.789Z,27.77
2023-03-18T05:47:10.211Z,27.48
2023-03-18T05:49:37.414Z,28.27
2023-03-18T05:52:05.106Z,26.50
2023-03-18T05:54:32.400Z,27.10
2023-03-18T05:56:59.630Z,26.25
2023-03-18T05:59:26.717Z,27.55
2023-03-18T06:01:56.225Z,26.70
2023-03-18T06:04:23.437Z,27.33
2023-03-18T06:06:51.414Z,28.23
2023-03-18T06:09:18.477Z,25.48
2023-03-18T06:11:45.796Z,26.35
2023-03-18T06:14:13.106Z,25.85
2023-03-18T06:16:41.856Z,25.48
2023-03-18T06:19:10.836Z,26.65
2023-03-18T06:21:39.156Z,25.90
2023-03-18T06:24:07.483Z,24.00
2023-03-18T06:26:35.206Z,25.77
2023-03-18T06:29:02.189Z,24.55
2023-03-18T06:31:29.081Z,25.52
2023-03-18T06:33:56.191Z,24.63
2023-03-18T06:36:23.318Z,25.15
2023-03-18T06:38:50.918Z,23.77
2023-03-18T06:41:18.327Z,26.05
2023-03-18T06:43:48.824Z,24.17
2023-03-18T06:46:15.944Z,25.02
2023-03-18T06:48:43.174Z,24.38
2023-03-18T06:51:11.204Z,22.88
2023-03-18T06:53:38.786Z,23.23
2023-03-18T06:56:06.519Z,23.92
2023-03-18T06:58:34.057Z,25.60
2023-03-18T07:01:04.209Z,24.60
2023-03-18T07:03:31.502Z,23.85
2023-03-18T07:06:04.431Z,23.52
2023-03-18T07:08:31.640Z,24.13
2023-03-18T07:10:58.664Z,24.63
2023-03-18T07:13:25.848Z,23.42
2023-03-18T07:15:56.524Z,23.58
2023-03-18T07:18:24.212Z,23.05
2023-03-18T07:20:51.335Z,23.63
2023-03-18T07:23:18.374Z,23.35
2023-03-18T07:25:45.597Z,23.13
2023-03-18T07:28:12.553Z,22.90
2023-03-18T07:30:40.010Z,23.77
2023-03-18T07:33:12.783Z,22.60
2023-03-18T07:35:41.506Z,23.85
2023-03-18T07:38:12.484Z,22.02
2023-03-18T07:40:43.076Z,23.00
2023-03-18T07:43:10.205Z,22.88
2023-03-18T07:45:37.295Z,21.85
2023-03-18T07:48:05.661Z,22.80
2023-03-18T07:50:32.864Z,21.52
2023-03-18T07:53:00.068Z,21.98
2023-03-18T07:55:27.044Z,20.65
2023-03-18T07:57:54.245Z,21.23
2023-03-18T08:00:22.453Z,19.65
2023-03-18T08:02:49.467Z,19.77
2023-03-18T08:05:16.825Z,18.50
2023-03-18T08:07:43.683Z,18.67
2023-03-18T08:10:11.815Z,18.40
2023-03-18T08:12:52.186Z,17.67
2023-03-18T08:15:26.852Z,17.60
2023-03-18T08:17:54.168Z,16.35
2023-03-18T08:20:21.756Z,15.95
2023-03-18T08:22:50.042Z,16.52
2023-03-18T08:25:17.202Z,14.73
2023-03-18T08:27:44.267Z,14.63
2023-03-18T08:30:11.904Z,15.25
2023-03-18T08:32:39.139Z,13.82
2023-03-18T08:35:06.600Z,13.15
2023-03-18T08:37:33.901Z,14.48
2023-03-18T08:40:02.110Z,14.45
2023-03-18T08:42:29.116Z,13.52
2023-03-18T08:44:57.036Z,13.90
2023-03-18T08:47:25.545Z,12.90
2023-03-18T08:49:52.461Z,12.18
2023-03-18T08:52:19.897Z,12.75
2023-03-18T08:54:47.900Z,12.07
2023-03-18T08:57:16.114Z,12.00
2023-03-18T08:59:43.207Z,10.88
2023-03-18T09:02:19.927Z,10.65
2023-03-18T09:04:48.312Z,10.25
2023-03-18T09:07:17.378Z,10.45
2023-03-18T09:09:46.167Z,9.23
2023-03-18T09:12:14.242Z,9.55
2023-03-18T09:14:42.765Z,8.15
2023-03-18T09:17:10.012Z,7.80
2023-03-18T09:19:37.635Z,8.43
2023-03-18T09:22:04.779Z,8.40
2023-03-18T09:24:31.809Z,8.55
2023-03-18T09:26:59.987Z,7.88
2023-03-18T09:29:27.748Z,7.90
2023-03-18T09:31:55.773Z,8.05
2023-03-18T09:34:23.043Z,7.00
2023-03-18T09:36:51.703Z,7.05
2023-03-18T09:39:22.266Z,7.60
2023-03-18T09:42:13.609Z,6.43
2023-03-18T09:44:40.950Z,6.68
2023-03-18T09:47:11.491Z,6.28
2023-03-18T09:50:21.752Z,5.75
2023-03-18T09:53:19.900Z,5.75
2023-03-18T09:55:55.836Z,5.43
2023-03-18T09:58:37.759Z,5.25
2023-03-18T10:01:07.424Z,5.63
2023-03-18T10:03:44.375Z,5.22
2023-03-18T10:06:18.145Z,5.40
2023-03-18T10:09:03.638Z,5.65
2023-03-18T10:11:42.011Z,6.00
2023-03-18T10:14:14.997Z,5.50
2023-03-18T10:16:52.290Z,4.72
2023-03-18T10:19:19.942Z,4.00
2023-03-18T10:22:00.846Z,4.60
2023-03-18T10:24:46.023Z,4.50
2023-03-18T10:27:31.852Z,4.28
2023-03-18T10:30:06.509Z,4.10
2023-03-18T10:32:56.978Z,3.65
2023-03-18T10:35:31.720Z,3.58
2023-03-18T10:38:12.889Z,4.10
2023-03-18T10:40:42.894Z,3.97
2023-03-18T10:43:21.140Z,3.80
2023-03-18T10:45:52.122Z,3.40
2023-03-18T10:48:45.755Z,3.70
2023-03-18T10:51:26.043Z,4.05
2023-03-18T10:54:11.733Z,3.90
2023-03-18T10:56:38.963Z,3.85
2023-03-18T10:59:18.547Z,3.60
2023-03-18T11:02:02.212Z,3.88
2023-03-18T11:04:33.314Z,3.47
2023-03-18T11:07:03.304Z,3.33
2023-03-18T11:09:36.558Z,3.63
2023-03-18T11:12:14.413Z,3.55
2023-03-18T11:14:43.025Z,3.53
2023-03-18T11:17:29.623Z,3.28
2023-03-18T11:20:10.846Z,3.35
2023-03-18T11:22:44.423Z,3.45
2023-03-18T11:25:18.114Z,3.33
2023-03-18T11:27:48.332Z,3.10
2023-03-18T11:30:31.251Z,2.95
2023-03-18T11:33:14.634Z,2.67
2023-03-18T11:35:54.765Z,2.85
2023-03-18T11:38:29.413Z,2.95
2023-03-18T11:41:30.260Z,2.47
2023-03-18T11:44:00.186Z,2.60
2023-03-18T11:46:43.593Z,2.80
2023-03-18T11:49:16.242Z,2.65
2023-03-18T11:52:01.728Z,3.13
2023-03-18T11:54:49.199Z,2.75
2023-03-18T11:57:45.353Z,2.95
2023-03-18T12:00:29.118Z,2.95
2023-03-18T12:03:15.543Z,2.50
2023-03-18T12:05:57.254Z,2.55
2023-03-18T12:08:50.945Z,2.95
2023-03-18T12:11:55.469Z,2.40
2023-03-18T12:14:47.901Z,2.35
2023-03-18T12:17:34.048Z,2.65
2023-03-18T12:20:22.454Z,2.28
2023-03-18T12:23:08.041Z,2.28
2023-03-18T12:26:06.385Z,2.53
2023-03-18T12:29:14.758Z,2.33
2023-03-18T12:32:00.526Z,2.47
2023-03-18T12:34:46.488Z,2.20
2023-03-18T12:37:37.542Z,2.53
2023-03-18T12:40:20.635Z,2.30
2023-03-18T12:43:11.192Z,2.60
2023-03-18T12:45:42.826Z,2.15
2023-03-18T12:48:44.191Z,2.30
2023-03-18T12:51:18.606Z,2.63
2023-03-18T12:53:53.623Z,2.25
2023-03-18T12:56:24.295Z,2.95
2023-03-18T12:59:07.115Z,2.92
2023-03-18T13:01:41.105Z,2.53
2023-03-18T13:04:15.077Z,2.63
2023-03-18T13:07:08.325Z,2.28
2023-03-18T13:09:45.467Z,2.78
2023-03-18T13:12:31.498Z,3.00
2023-03-18T13:15:02.933Z,2.70
2023-03-18T13:17:34.196Z,2.78
2023-03-18T13:20:04.184Z,2.58
2023-03-18T13:22:43.583Z,2.63
2023-03-18T13:25:13.982Z,2.85
2023-03-18T13:28:19.463Z,2.80
2023-03-18T13:31:21.592Z,3.00
2023-03-18T13:34:26.461Z,2.65
2023-03-18T13:37:10.809Z,2.70
2023-03-18T13:39:49.234Z,2.60
2023-03-18T13:42:25.970Z,2.35
2023-03-18T13:45:05.527Z,2.83
2023-03-18T13:47:34.939Z,2.80
2023-03-18T13:50:19.027Z,2.38
2023-03-18T13:52:47.932Z,2.60
2023-03-18T13:55:21.689Z,2.70
2023-03-18T13:58:17.774Z,2.70
2023-03-18T14:01:08.229Z,2.60
2023-03-18T14:03:42.110Z,2.53
2023-03-18T14:06:11.038Z,2.40
2023-03-18T14:08:44.260Z,2.63
2023-03-18T14:11:17.303Z,2.33
2023-03-18T14:13:47.335Z,2.88
2023-03-18T14:16:20.548Z,2.72
2023-03-18T14:18:58.054Z,2.40
2023-03-18T14:21:28.589Z,2.35
2023-03-18T14:24:17.315Z,2.30
2023-03-18T14:27:05.330Z,2.65
2023-03-18T14:29:43.629Z,2.08
2023-03-18T14:32:29.811Z,2.45
2023-03-18T14:34:59.053Z,2.05
2023-03-18T14:37:31.692Z,2.20
2023-03-18T14:40:14.885Z,2.25
2023-03-18T14:43:06.931Z,3.00
2023-03-18T14:45:37.727Z,2.60
2023-03-18T14:48:30.788Z,2.58
2023-03-18T14:51:05.838Z,2.50
2023-03-18T14:53:48.631Z,2.80
2023-03-18T14:56:24.362Z,2.78
2023-03-18T14:58:56.556Z,2.03
2023-03-18T15:01:38.456Z,2.10
2023-03-18T15:04:12.556Z,2.83
2023-03-18T15:06:41.030Z,2.40
2023-03-18T15:09:14.532Z,2.40
2023-03-18T15:11:45.489Z,2.70
2023-03-18T15:14:27.378Z,2.88
2023-03-18T15:16:56.653Z,2.92
2023-03-18T15:19:24.966Z,2.90
2023-03-18T15:21:52.522Z,2.80
2023-03-18T15:24:26.059Z,3.35
2023-03-18T15:27:18.249Z,3.47
2023-03-18T15:29:55.001Z,2.58
2023-03-18T15:32:28.766Z,2.50
2023-03-18T15:35:13.133Z,2.80
2023-03-18T15:37:42.653Z,2.70
2023-03-18T15:40:22.730Z,2.67
2023-03-18T15:42:51.046Z,2.78
2023-03-18T15:45:27.325Z,2.50
2023-03-18T15:47:58.290Z,2.63
2023-03-18T15:50:31.858Z,2.50
2023-03-18T15:53:18.841Z,2.88
2023-03-18T15:55:53.537Z,2.40
2023-03-18T15:58:36.277Z,2.30
2023-03-18T16:01:05.160Z,3.00
2023-03-18T16:03:36.078Z,2.65
2023-03-18T16:06:03.239Z,2.63
2023-03-18T16:08:30.648Z,2.35
2023-03-18T16:11:02.113Z,1.92
2023-03-18T16:13:32.169Z,2.20
2023-03-18T16:15:59.709Z,1.80
2023-03-18T16:18:27.158Z,2.05
2023-03-18T16:20:54.291Z,1.63
2023-03-18T16:23:21.816Z,1.50
2023-03-18T16:25:51.842Z,1.58
2023-03-18T16:28:25.102Z,1.60
2023-03-18T16:30:53.577Z,1.48
2023-03-18T16:33:21.078Z,1.60
2023-03-18T16:35:58.727Z,1.58
2023-03-18T16:38:26.335Z,1.50
2023-03-18T16:40:54.900Z,1.80
2023-03-18T16:43:23.145Z,2.03
2023-03-18T16:45:54.241Z,1.63
2023-03-18T16:48:22.647Z,1.90
2023-03-18T16:50:51.471Z,1.58
2023-03-18T16:53:29.679Z,1.92
2023-03-18T16:56:04.432Z,2.00
2023-03-18T16:58:36.515Z,1.83
2023-03-18T17:01:07.602Z,1.77
2023-03-18T17:03:36.213Z,2.10
2023-03-18T17:06:03.218Z,1.88
2023-03-18T17:08:30.316Z,2.20
2023-03-18T17:11:02.494Z,2.00
2023-03-18T17:13:34.188Z,2.28
2023-03-18T17:16:01.927Z,1.98
2023-03-18T17:18:30.227Z,2.67
2023-03-18T17:21:07.708Z,2.92
2023-03-18T17:23:34.805Z,2.80
2023-03-18T17:26:05.316Z,2.38
2023-03-18T17:28:39.338Z,1.70
2023-03-18T17:31:06.954Z,2.10
2023-03-18T17:33:37.915Z,2.03
2023-03-18T17:36:06.728Z,1.83
2023-03-18T17:38:36.912Z,1.90
2023-03-18T17:41:13.815Z,1.75
2023-03-18T17:43:40.736Z,1.60
2023-03-18T17:46:08.163Z,2.88
2023-03-18T17:48:37.308Z,4.20
2023-03-18T17:51:16.322Z,2.20
2023-03-18T17:53:47.944Z,1.80
2023-03-18T17:56:17.301Z,2.58
2023-03-18T17:58:46.868Z,2.53
2023-03-18T18:01:24.863Z,1.85
2023-03-18T18:03:52.158Z,1.30
2023-03-18T18:06:28.860Z,1.55
2023-03-18T18:08:59.086Z,2.20
2023-03-18T18:11:31.307Z,1.75
2023-03-18T18:14:06.662Z,2.03
2023-03-18T18:16:33.668Z,1.92
2023-03-18T18:19:00.996Z,2.03
2023-03-18T18:21:31.231Z,1.80
2023-03-18T18:23:58.520Z,2.30
2023-03-18T18:26:25.511Z,1.90
2023-03-18T18:28:52.752Z,2.20
2023-03-18T18:31:21.395Z,1.70
2023-03-18T18:33:50.296Z,1.88
2023-03-18T18:36:18.151Z,2.30
2023-03-18T18:38:45.777Z,2.47
2023-03-18T18:41:12.788Z,2.50
2023-03-18T18:43:39.772Z,2.80
2023-03-18T18:46:14.923Z,2.40
2023-03-18T18:48:43.990Z,1.85
2023-03-18T18:51:19.676Z,2.20
2023-03-18T18:53:50.789Z,2.17
2023-03-18T18:56:32.215Z,2.53
2023-03-18T18:58:59.389Z,4.00
2023-03-18T19:01:27.326Z,3.08
2023-03-18T19:03:55.720Z,4.65
2023-03-18T19:06:31.752Z,4.15
2023-03-18T19:09:01.813Z,2.33
2023-03-18T19:11:30.509Z,2.30
2023-03-18T19:14:19.293Z,4.30
2023-03-18T19:16:46.589Z,3.50
2023-03-18T19:19:15.349Z,2.20
2023-03-18T19:21:43.264Z,2.20
2023-03-18T19:24:29.761Z,2.30
2023-03-18T19:26:59.625Z,2.33
2023-03-18T19:29:27.391Z,2.53
2023-03-18T19:31:54.898Z,2.63
2023-03-18T19:34:23.322Z,2.72
2023-03-18T19:36:55.985Z,2.33
2023-03-18T19:39:24.851Z,2.60
2023-03-18T19:41:52.104Z,2.45
2023-03-18T19:44:25.164Z,2.60
2023-03-18T19:46:55.022Z,2.70
2023-03-18T19:49:35.352Z,2.38
2023-03-18T19:52:03.695Z,2.75
2023-03-18T19:54:36.736Z,3.30
2023-03-18T19:57:06.944Z,3.10
2023-03-18T19:59:39.020Z,2.63
2023-03-18T20:02:24.984Z,2.50
2023-03-18T20:04:57.683Z,2.30
2023-03-18T20:07:27.249Z,1.67
2023-03-18T20:09:55.081Z,1.90
2023-03-18T20:12:24.284Z,2.17
2023-03-18T20:14:51.305Z,2.10
2023-03-18T20:17:24.067Z,2.05
2023-03-18T20:19:51.171Z,1.92
2023-03-18T20:22:26.157Z,2.22
2023-03-18T20:24:54.112Z,1.85
2023-03-18T20:27:22.058Z,2.30
2023-03-18T20:29:49.348Z,2.28
2023-03-18T20:32:16.464Z,2.15
2023-03-18T20:34:44.006Z,3.35
2023-03-18T20:37:34.332Z,3.65
2023-03-18T20:40:02.904Z,2.60
2023-03-18T20:42:29.981Z,2.63
2023-03-18T20:44:56.865Z,2.28
2023-03-18T20:47:23.732Z,2.00
2023-03-18T20:49:50.599Z,2.20
2023-03-18T20:52:28.521Z,2.00
2023-03-18T20:54:56.925Z,1.98
2023-03-18T20:57:25.017Z,2.30
2023-03-18T20:59:52.746Z,2.60
2023-03-18T21:02:32.869Z,2.17
2023-03-18T21:05:01.754Z,2.85
2023-03-18T21:07:29.816Z,2.70
2023-03-18T21:09:56.710Z,2.38
2023-03-18T21:12:24.182Z,2.25
2023-03-18T21:14:51.172Z,2.88
2023-03-18T21:17:27.376Z,2.35
2023-03-18T21:20:11.100Z,3.00
2023-03-18T21:22:47.747Z,2.50
2023-03-18T21:25:20.894Z,2.65
2023-03-18T21:27:48.567Z,2.65
2023-03-18T21:30:16.846Z,2.53
2023-03-18T21:32:45.183Z,2.63
2023-03-18T21:35:19.339Z,2.53
2023-03-18T21:37:46.503Z,2.45
2023-03-18T21:40:19.331Z,2.25
2023-03-18T21:42:46.865Z,2.33
2023-03-18T21:45:16.441Z,2.47
2023-03-18T21:47:43.372Z,2.40
2023-03-18T21:50:26.315Z,2.70
2023-03-18T21:52:54.443Z,2.67
2023-03-18T21:55:22.632Z,2.40
2023-03-18T21:57:49.742Z,2.47
2023-03-18T22:00:20.616Z,2.78
2023-03-18T22:02:48.412Z,2.53
2023-03-18T22:05:19.541Z,2.92
2023-03-18T22:07:46.897Z,2.88
2023-03-18T22:10:20.843Z,2.80
2023-03-18T22:12:48.003Z,2.50
2023-03-18T22:15:23.931Z,3.00
2023-03-18T22:17:51.886Z,3.13
2023-03-18T22:20:19.266Z,3.38
2023-03-18T22:22:47.579Z,2.80
2023-03-18T22:25:36.916Z,2.95
2023-03-18T22:28:04.063Z,3.15
2023-03-18T22:30:33.534Z,3.53
2023-03-18T22:33:06.861Z,7.45
2023-03-18T22:35:34.695Z,7.63
2023-03-18T22:38:01.694Z,4.50
2023-03-18T22:40:43.593Z,4.15
2023-03-18T22:43:37.496Z,3.97
2023-03-18T22:46:11.480Z,7.03
2023-03-18T22:48:38.772Z,6.50
2023-03-18T22:51:06.468Z,8.13
2023-03-18T22:53:41.274Z,10.98
2023-03-18T22:56:14.068Z,8.80
2023-03-18T22:58:41.006Z,11.38
2023-03-18T23:01:10.015Z,6.15
2023-03-18T23:03:40.557Z,4.90
2023-03-18T23:06:15.991Z,5.28
2023-03-18T23:08:43.003Z,6.28
2023-03-18T23:11:09.985Z,5.65
2023-03-18T23:13:49.839Z,5.18
2023-03-18T23:16:20.529Z,4.75
2023-03-18T23:18:47.964Z,4.90
2023-03-18T23:21:17.484Z,5.38
2023-03-18T23:23:44.509Z,4.80
2023-03-18T23:26:12.087Z,4.82
2023-03-18T23:28:44.591Z,5.20
2023-03-18T23:31:12.972Z,5.40
2023-03-18T23:33:40.002Z,4.38
2023-03-18T23:36:07.528Z,4.15
2023-03-18T23:38:34.672Z,3.65
2023-03-18T23:41:01.759Z,3.53
2023-03-18T23:43:28.787Z,3.28
2023-03-18T23:45:55.992Z,3.08
2023-03-18T23:48:22.846Z,3.28
2023-03-18T23:50:49.670Z,3.10
2023-03-18T23:53:16.666Z,2.97
2023-03-18T23:55:43.751Z,3.20
2023-03-18T23:58:10.870Z,2.78
